• Join FlightAware (Why Join?)
  • Login
  • US Flag 
11:30AM EDT


 

Airport Tracker/Info


-or-


 

Live Flight TrackerFlight Track Log ✈ DAL8882 ✈ 24-Jul-2013 ✈ KSFO - KLAS

Flight Track Log - Related Links

Times and Time Zones

All times are in EDT time to prevent confusion due to time zone crossing. See the DAL8882 flight status page for this flight to view local times or setup timezone preferences in your user account.

Time Position Orientation Groundspeed Altitude Reporting Facility
EDT Latitude Longitude Course Direction KTS MPH feet Rate Location/Type
11:08PM 37.6861 -122.3694 358° North 236 272 4,200  Level Oakland Center
11:09PM 37.6758 -122.4381 259° West 251 289 7,900 3,540 Climbing Oakland Center
11:10PM 37.5981 -122.4650 195° South 287 330 11,400 2,580 Climbing Oakland Center
11:11PM 37.5353 -122.3842 134° Southeast 351 404 13,200 2,340 Climbing Oakland Center
11:12PM 37.5081 -122.2536 105° East 389 448 16,300 3,060 Climbing Oakland Center
11:13PM 37.4761 -122.1197 107° East 400 460 19,500 2,880 Climbing Oakland Center
11:14PM 37.4425 -121.9803 107° East 416 479 22,200 2,760 Climbing Oakland Center
11:15PM 37.3983 -121.8069 108° East 433 498 25,200 2,340 Climbing Oakland Center
11:16PM 37.3647 -121.6536 105° East 452 520 27,000 1,860 Climbing Oakland Center
11:17PM 37.3503 -121.4936 96° East 477 549 29,000 2,160 Climbing Oakland Center
11:18PM 37.3336 -121.3233 97° East 491 565 31,400 2,220 Climbing Oakland Center
11:19PM 37.3175 -121.1572 97° East 485 558 33,600 2,160 Climbing Oakland Center
11:20PM 37.3014 -120.9881 97° East 489 563 35,900 1,620 Climbing Oakland Center
11:21PM 37.2847 -120.8244 97° East 477 549 37,000 540 Climbing Oakland Center
11:22PM 37.2656 -120.6269 97° East 477 549 37,000  Level Oakland Center
11:23PM 37.2478 -120.4608 98° East 482 555 37,000  Level Oakland Center
11:24PM 37.2294 -120.2950 98° East 482 555 37,000  Level Oakland Center
11:25PM 37.2122 -120.1269 97° East 485 558 37,000  Level Oakland Center
11:26PM 37.1939 -119.9597 98° East 486 559 37,000  Level Oakland Center
11:28PM 37.1764 -119.7992 98° East 488 562 37,000  Level Oakland Center
11:29PM 37.1581 -119.6297 98° East 490 564 37,000  Level Oakland Center
11:30PM 37.1350 -119.4289 98° East 487 560 37,000  Level Oakland Center
11:31PM 37.1161 -119.2608 98° East 487 560 37,000  Level Oakland Center
11:32PM 37.0969 -119.0906 98° East 493 567 37,000  Level Oakland Center
11:33PM 37.0761 -118.9228 99° East 489 563 37,000  Level Oakland Center
11:34PM 37.0569 -118.7544 98° East 489 563 37,000  Level Oakland Center
11:35PM 37.0369 -118.5836 98° East 494 568 37,000  Level Oakland Center
11:36PM 37.0161 -118.4203 99° East 491 565 37,000  Level Oakland Center
11:37PM 36.9947 -118.2519 99° East 491 565 37,000  Level Oakland Center
11:38PM 36.9764 -118.0836 98° East 490 564 37,000 -60 Level Oakland Center
11:39PM 36.9517 -117.8856 99° East 485 558 36,900 -780 Descending Oakland Center
11:40PM 36.9294 -117.7189 99° East 487 560 35,500 -1,320 Descending Oakland Center
11:41PM 36.9069 -117.5500 99° East 493 567 34,200 -1,140 Descending Oakland Center
11:41PM 36.8903 -117.4853 108° East 497 572 33,800 -1,140 Descending Los Angeles Center
11:42PM 36.8017 -117.3200 124° Southeast 480 552 32,500 -1,140 Descending Los Angeles Center
11:43PM 36.7283 -117.1900 125° Southeast 473 544 31,500 -1,020 Descending Los Angeles Center
11:44PM 36.6547 -117.0547 124° Southeast 472 543 30,400 -1,020 Descending Los Angeles Center
11:45PM 36.5958 -116.9069 116° Southeast 476 548 29,500 -960 Descending Los Angeles Center
11:46PM 36.5386 -116.7603 116° Southeast 469 540 28,500 -1,080 Descending Los Angeles Center
11:47PM 36.4833 -116.6147 115° Southeast 472 543 27,400 -1,500 Descending Los Angeles Center
11:49PM 36.4261 -116.4672 116° Southeast 474 545 25,500 -2,340 Descending Los Angeles Center
11:50PM 36.3703 -116.3253 116° Southeast 466 536 22,600 -3,120 Descending Los Angeles Center
11:51PM 36.3056 -116.1606 116° Southeast 444 511 19,200 -3,240 Descending Los Angeles Center
11:51PM 36.2772 -116.0928 117° Southeast 434 499 17,700 -2,460 Descending Los Angeles Center
11:52PM 36.2558 -116.0344 114° Southeast 412 474 16,700 -1,080 Descending Los Angeles Center
11:53PM 36.2119 -115.9247 116° Southeast 361 415 16,100 -780 Descending Los Angeles Center
11:54PM 36.1742 -115.8172 113° Southeast 316 364 15,200 -960 Descending Los Angeles Center
11:55PM 36.1419 -115.7158 111° Southeast 315 362 14,200 -960 Descending Los Angeles Center
11:56PM 36.1117 -115.6247 112° Southeast 311 358 13,400 -900 Descending Los Angeles Center
11:57PM 36.0742 -115.5092 112° Southeast 307 353 12,300 -960 Descending Los Angeles Center
11:58PM 36.0469 -115.4225 111° Southeast 309 356 11,400 -1,020 Descending Los Angeles Center
11:59PM 36.0269 -115.3200 104° East 282 325 10,400 -1,020 Descending Los Angeles Center
12:00AM 36.0211 -115.2236 94° East 269 310 9,300 -900 Descending Los Angeles Center
12:01AM 36.0133 -115.1383 96° East 247 284 8,500 -660 Descending Los Angeles Center
12:02AM 36.0089 -115.0575 94° East 219 252 8,000 -420 Descending Los Angeles Center
12:03AM 36.0042 -114.9872 95° East 204 235 7,700 -660 Descending Los Angeles Center
12:04AM 36.0022 -114.9292 92° East 201 231 6,900 -960 Descending Los Angeles Center
12:04AM 35.9997 -114.8972 96° East 204 235 6,500 -300 Descending Los Angeles Center
12:05AM 36.0100 -114.8656 68° East 204 235 6,600 60 Climbing Los Angeles Center
12:05AM 36.0333 -114.8567 17° North 209 241 6,600  Level Los Angeles Center
12:06AM 36.0661 -114.8656 348° North 198 228 6,600 -780 Level Los Angeles Center
12:07AM 36.0731 -114.9269 278° West 186 214 5,400 -1,200 Descending Los Angeles Center
12:08AM 36.0739 -114.9800 271° West 175 201 4,300 -1,080 Descending Los Angeles Center
12:08AM 36.0733 -115.0036 268° West 184 212 3,900 -840 Descending Los Angeles Center
12:09AM 36.0733 -115.0644 270° West 181 208 3,000 -780 Descending Los Angeles Center
12:11AM 36.0739 -115.1189 271° West 152 175 2,200 -660 Descending Los Angeles Center
12:12AM 36.0667 -115.1500 270° West  Level FlightAware Approximate